createdAt,value
2022-08-11T00:01:11.544Z,66.07
2022-08-11T00:03:50.730Z,66.44
2022-08-11T00:06:32.741Z,66.70
2022-08-11T00:09:04.512Z,67.29
2022-08-11T00:11:58.813Z,66.85
2022-08-11T00:14:36.784Z,66.77
2022-08-11T00:17:15.991Z,67.23
2022-08-11T00:20:12.111Z,67.20
2022-08-11T00:22:44.405Z,67.53
2022-08-11T00:25:21.661Z,67.33
2022-08-11T00:27:49.716Z,67.77
2022-08-11T00:30:17.780Z,68.07
2022-08-11T00:32:59.587Z,68.47
2022-08-11T00:35:51.272Z,68.28
2022-08-11T00:38:32.101Z,67.95
2022-08-11T00:41:31.581Z,68.20
2022-08-11T00:44:23.662Z,67.92
2022-08-11T00:47:35.259Z,68.15
2022-08-11T00:50:27.169Z,68.71
2022-08-11T00:52:54.161Z,68.70
2022-08-11T00:55:47.112Z,68.42
2022-08-11T00:59:01.853Z,68.67
2022-08-11T01:01:38.387Z,68.49
2022-08-11T01:04:39.185Z,68.74
2022-08-11T01:08:01.335Z,68.95
2022-08-11T01:10:56.585Z,69.53
2022-08-11T01:14:14.937Z,69.74
2022-08-11T01:17:42.272Z,69.90
2022-08-11T01:20:46.927Z,69.81
2022-08-11T01:23:17.888Z,70.75
2022-08-11T01:26:34.940Z,70.64
2022-08-11T01:29:22.582Z,70.54
2022-08-11T01:32:55.337Z,70.23
2022-08-11T01:36:20.823Z,70.62
2022-08-11T01:39:18.525Z,71.05
2022-08-11T01:42:47.589Z,70.96
2022-08-11T01:45:48.086Z,71.12
2022-08-11T01:49:00.637Z,71.47
2022-08-11T01:52:30.165Z,72.00
2022-08-11T01:55:57.427Z,71.92
2022-08-11T01:58:55.933Z,71.82
2022-08-11T02:02:21.378Z,71.56
2022-08-11T02:05:49.592Z,72.61
2022-08-11T02:08:44.215Z,72.52
2022-08-11T02:11:31.608Z,72.45
2022-08-11T02:14:21.419Z,72.49
2022-08-11T02:17:21.314Z,71.99
2022-08-11T02:20:41.407Z,72.37
2022-08-11T02:24:04.440Z,73.09
2022-08-11T02:26:53.185Z,72.75
2022-08-11T02:29:48.141Z,72.96
2022-08-11T02:33:00.119Z,73.00
2022-08-11T02:35:42.857Z,73.51
2022-08-11T02:38:35.666Z,73.97
2022-08-11T02:41:43.723Z,73.66
2022-08-11T02:44:55.752Z,73.91
2022-08-11T02:48:56.893Z,73.96
2022-08-11T02:51:55.302Z,74.70
2022-08-11T02:54:56.352Z,74.14
2022-08-11T02:57:42.062Z,75.60
2022-08-11T03:00:19.473Z,75.64
2022-08-11T03:03:19.076Z,76.38
2022-08-11T03:06:46.691Z,76.13
2022-08-11T03:09:42.428Z,76.46
2022-08-11T03:13:40.292Z,76.47
2022-08-11T03:16:53.262Z,76.75
2022-08-11T03:20:11.435Z,76.88
2022-08-11T03:23:03.145Z,77.42
2022-08-11T03:25:54.634Z,77.31
2022-08-11T03:29:05.133Z,77.33
2022-08-11T03:32:30.004Z,77.37
2022-08-11T03:35:03.192Z,77.83
2022-08-11T03:38:12.856Z,77.53
2022-08-11T03:42:02.265Z,77.57
2022-08-11T03:45:03.060Z,78.09
2022-08-11T03:48:05.086Z,78.63
2022-08-11T03:51:18.420Z,78.48
2022-08-11T03:54:33.501Z,78.94
2022-08-11T03:57:27.901Z,78.44
2022-08-11T04:00:55.697Z,78.91
2022-08-11T04:04:08.732Z,79.26
2022-08-11T04:06:56.742Z,80.78
2022-08-11T04:10:06.425Z,80.95
2022-08-11T04:13:12.744Z,80.49
2022-08-11T04:16:39.699Z,81.26
2022-08-11T04:20:02.109Z,81.01
2022-08-11T04:23:09.981Z,80.55
2022-08-11T04:26:22.568Z,81.17
2022-08-11T04:30:03.470Z,80.70
